createdAt,value
2022-08-09T00:00:00.453Z,2.78
2022-08-09T00:02:31.206Z,2.45
2022-08-09T00:05:03.624Z,2.88
2022-08-09T00:07:45.460Z,2.50
2022-08-09T00:10:17.851Z,2.47
2022-08-09T00:12:52.622Z,2.72
2022-08-09T00:15:26.317Z,2.42
2022-08-09T00:18:06.134Z,2.58
2022-08-09T00:20:42.554Z,2.15
2022-08-09T00:23:56.143Z,2.35
2022-08-09T00:26:08.775Z,2.30
2022-08-09T00:28:38.673Z,2.33
2022-08-09T00:31:50.474Z,2.80
2022-08-09T00:33:54.758Z,2.05
2022-08-09T00:36:29.504Z,2.55
2022-08-09T00:38:57.993Z,2.15
2022-08-09T00:44:14.997Z,2.63
2022-08-09T00:44:20.669Z,2.75
2022-08-09T00:47:05.067Z,2.08
2022-08-09T00:49:34.881Z,2.38
2022-08-09T00:52:06.235Z,2.30
2022-08-09T00:54:45.070Z,2.40
2022-08-09T00:57:12.401Z,2.78
2022-08-09T00:59:46.702Z,2.20
2022-08-09T01:02:22.063Z,2.28
2022-08-09T01:04:56.901Z,2.50
2022-08-09T01:08:00.935Z,2.72
2022-08-09T01:11:03.688Z,2.53
2022-08-09T01:13:58.934Z,2.25
2022-08-09T01:16:47.096Z,2.15
2022-08-09T01:20:01.769Z,2.63
2022-08-09T01:22:55.173Z,2.58
2022-08-09T01:25:48.679Z,2.22
2022-08-09T01:28:19.034Z,3.03
2022-08-09T01:30:52.194Z,2.40
2022-08-09T01:33:25.465Z,2.60
2022-08-09T01:35:54.996Z,2.28
2022-08-09T01:38:26.174Z,2.22
2022-08-09T01:41:05.088Z,3.50
2022-08-09T01:43:50.272Z,2.20
2022-08-09T01:46:38.680Z,2.40
2022-08-09T01:49:14.549Z,2.80
2022-08-09T01:51:53.289Z,2.25
2022-08-09T01:54:25.956Z,2.17
2022-08-09T01:56:55.854Z,2.40
2022-08-09T01:59:24.351Z,2.13
2022-08-09T02:01:59.186Z,2.80
2022-08-09T02:04:29.798Z,2.17
2022-08-09T02:08:34.869Z,2.35
2022-08-09T02:10:29.647Z,2.47
2022-08-09T02:13:02.132Z,3.28
2022-08-09T02:15:49.033Z,2.45
2022-08-09T02:18:23.842Z,2.78
2022-08-09T02:20:56.645Z,2.30
2022-08-09T02:23:52.473Z,2.38
2022-08-09T02:26:27.193Z,2.60
2022-08-09T02:28:58.341Z,2.40
2022-08-09T02:31:34.042Z,2.30
2022-08-09T02:34:13.193Z,2.58
2022-08-09T02:36:54.948Z,2.45
2022-08-09T02:39:41.977Z,2.55
2022-08-09T02:42:17.280Z,2.95
2022-08-09T02:44:52.597Z,2.67
2022-08-09T02:47:23.135Z,2.75
2022-08-09T02:50:02.334Z,2.30
2022-08-09T02:52:39.858Z,2.55
2022-08-09T02:55:20.615Z,2.63
2022-08-09T02:58:00.019Z,2.30
2022-08-09T03:00:48.007Z,2.83
2022-08-09T03:04:12.947Z,3.28
2022-08-09T03:06:15.762Z,3.00
2022-08-09T03:08:47.533Z,2.72
2022-08-09T03:11:30.223Z,3.47
2022-08-09T03:14:08.342Z,2.80
2022-08-09T03:16:41.629Z,3.30
2022-08-09T03:19:14.411Z,3.25
2022-08-09T03:21:58.050Z,3.03
2022-08-09T03:24:42.389Z,3.20
2022-08-09T03:27:13.674Z,3.67
2022-08-09T03:30:00.982Z,3.30
2022-08-09T03:32:31.381Z,3.70
2022-08-09T03:34:59.547Z,3.40
2022-08-09T03:37:56.566Z,3.42
2022-08-09T03:40:17.987Z,3.55
2022-08-09T03:42:45.801Z,3.55
2022-08-09T03:45:13.973Z,2.97
2022-08-09T03:47:46.623Z,3.55
2022-08-09T03:50:18.726Z,3.08
2022-08-09T03:52:58.084Z,3.28
2022-08-09T03:55:27.197Z,3.22
2022-08-09T03:58:06.390Z,3.85
2022-08-09T04:00:38.783Z,3.58
2022-08-09T04:03:07.697Z,3.28
2022-08-09T04:05:40.371Z,3.65
2022-08-09T04:08:07.665Z,4.07
2022-08-09T04:10:35.690Z,4.15
2022-08-09T04:13:09.508Z,4.20
2022-08-09T04:16:18.564Z,3.38
2022-08-09T04:18:27.438Z,3.40
2022-08-09T04:20:55.553Z,3.53
2022-08-09T04:23:25.001Z,3.67
2022-08-09T04:25:56.270Z,4.03
2022-08-09T04:28:34.121Z,3.22
2022-08-09T04:31:08.406Z,3.65
2022-08-09T04:33:52.281Z,4.00
2022-08-09T04:36:24.984Z,3.80
2022-08-09T04:38:53.111Z,4.43
2022-08-09T04:41:23.365Z,3.92
2022-08-09T04:44:05.800Z,3.50
2022-08-09T04:46:57.048Z,4.53
2022-08-09T04:49:40.088Z,3.95
2022-08-09T04:52:10.426Z,3.15
2022-08-09T04:54:37.286Z,4.03
2022-08-09T04:57:04.521Z,3.05
2022-08-09T04:59:36.138Z,3.72
2022-08-09T05:02:04.186Z,3.38
2022-08-09T05:04:33.320Z,3.78
2022-08-09T05:07:00.330Z,4.00
2022-08-09T05:09:41.921Z,2.83
2022-08-09T05:12:12.602Z,3.13
2022-08-09T05:14:41.179Z,3.47
2022-08-09T05:18:36.760Z,3.55
2022-08-09T05:19:56.582Z,3.83
2022-08-09T05:22:33.275Z,3.47
2022-08-09T05:25:04.954Z,3.88
2022-08-09T05:27:31.961Z,3.20
2022-08-09T05:29:58.911Z,3.70
2022-08-09T05:32:26.331Z,3.00
2022-08-09T05:34:57.016Z,3.60
2022-08-09T05:37:24.316Z,2.90
2022-08-09T05:39:52.400Z,3.72
2022-08-09T05:42:21.940Z,3.10
2022-08-09T05:44:55.979Z,2.90
2022-08-09T05:47:25.264Z,3.40
2022-08-09T05:50:31.068Z,2.97
2022-08-09T05:52:43.573Z,3.25
2022-08-09T05:55:20.820Z,2.90
2022-08-09T05:57:55.396Z,3.05
2022-08-09T06:00:23.927Z,2.90
2022-08-09T06:02:54.357Z,3.05
2022-08-09T06:05:50.179Z,2.63
2022-08-09T06:08:12.373Z,2.35
2022-08-09T06:10:39.349Z,2.75
2022-08-09T06:13:20.723Z,2.58
2022-08-09T06:15:51.734Z,2.83
2022-08-09T06:18:23.903Z,2.90
2022-08-09T06:20:54.722Z,2.38
2022-08-09T06:23:57.302Z,2.53
2022-08-09T06:26:11.775Z,2.63
2022-08-09T06:28:38.617Z,2.38
2022-08-09T06:31:10.403Z,2.65
2022-08-09T06:33:40.648Z,2.20
2022-08-09T06:36:13.755Z,2.25
2022-08-09T06:38:50.274Z,2.83
2022-08-09T06:41:20.310Z,2.60
2022-08-09T06:43:48.400Z,2.75
2022-08-09T06:46:40.425Z,2.55
2022-08-09T06:49:02.951Z,2.50
2022-08-09T06:51:30.336Z,2.00
2022-08-09T06:54:00.907Z,2.45
2022-08-09T06:56:30.552Z,2.05
2022-08-09T07:00:54.739Z,1.83
2022-08-09T07:01:54.219Z,2.00
2022-08-09T07:04:25.117Z,2.20
2022-08-09T07:07:00.660Z,1.95
2022-08-09T07:09:57.034Z,2.00
2022-08-09T07:12:17.923Z,2.45
2022-08-09T07:14:50.711Z,1.95
2022-08-09T07:17:19.992Z,2.20
2022-08-09T07:19:48.137Z,1.77
2022-08-09T07:22:18.716Z,2.15
2022-08-09T07:25:01.751Z,2.10
2022-08-09T07:27:33.853Z,1.90
2022-08-09T07:30:02.850Z,2.08
2022-08-09T07:32:33.034Z,1.77
2022-08-09T07:35:10.334Z,2.20
2022-08-09T07:37:45.702Z,2.25
2022-08-09T07:40:16.604Z,1.80
2022-08-09T07:43:07.137Z,2.35
2022-08-09T07:45:43.925Z,2.10
2022-08-09T07:48:25.742Z,1.80
2022-08-09T07:51:09.227Z,2.20
2022-08-09T07:54:04.975Z,2.53
2022-08-09T07:56:37.066Z,2.30
2022-08-09T07:59:16.031Z,2.35
2022-08-09T08:01:56.099Z,3.00
2022-08-09T08:04:31.109Z,2.60
2022-08-09T08:07:00.327Z,2.58
2022-08-09T08:09:45.279Z,2.42
2022-08-09T08:12:28.107Z,1.83
2022-08-09T08:14:57.037Z,2.10
2022-08-09T08:17:52.103Z,1.92
2022-08-09T08:20:13.549Z,2.22
2022-08-09T08:22:41.253Z,1.60
2022-08-09T08:25:13.538Z,1.73
2022-08-09T08:27:43.077Z,1.67
2022-08-09T08:30:11.778Z,1.48
2022-08-09T08:32:41.461Z,2.40
2022-08-09T08:35:19.867Z,2.55
2022-08-09T08:37:59.499Z,2.00
2022-08-09T08:40:29.680Z,2.25
2022-08-09T08:42:58.737Z,2.25
2022-08-09T08:45:39.252Z,2.38
2022-08-09T08:48:19.560Z,1.90
2022-08-09T08:50:49.262Z,2.22
2022-08-09T08:53:22.005Z,1.83
2022-08-09T08:55:49.174Z,3.60
2022-08-09T08:58:23.942Z,2.65
2022-08-09T09:00:56.927Z,2.30
2022-08-09T09:03:33.195Z,2.58
2022-08-09T09:06:07.361Z,1.80
2022-08-09T09:08:42.132Z,1.90
2022-08-09T09:11:17.608Z,2.30
2022-08-09T09:13:55.904Z,2.15
2022-08-09T09:16:35.642Z,2.03
2022-08-09T09:19:36.810Z,1.85
2022-08-09T09:22:07.610Z,2.08
2022-08-09T09:24:47.350Z,1.75
2022-08-09T09:28:06.739Z,2.00
2022-08-09T09:30:39.836Z,2.15
2022-08-09T09:33:17.040Z,2.53
2022-08-09T09:36:01.637Z,1.75
2022-08-09T09:38:47.977Z,1.73
2022-08-09T09:41:24.117Z,1.88
2022-08-09T09:44:11.911Z,1.90
2022-08-09T09:46:46.084Z,1.83
2022-08-09T09:49:23.529Z,1.98
2022-08-09T09:52:33.746Z,1.80
2022-08-09T09:55:07.901Z,1.90
2022-08-09T09:58:18.776Z,2.00
2022-08-09T10:00:53.665Z,2.35
2022-08-09T10:03:39.665Z,2.25
2022-08-09T10:06:07.162Z,3.08
2022-08-09T10:08:43.140Z,2.22
2022-08-09T10:12:00.427Z,1.77
2022-08-09T10:14:33.231Z,2.08
2022-08-09T10:17:39.236Z,2.05
2022-08-09T10:19:59.264Z,2.00
2022-08-09T10:22:35.803Z,1.90
2022-08-09T10:25:12.072Z,2.00
2022-08-09T10:27:56.825Z,2.00
2022-08-09T10:32:13.566Z,1.90
2022-08-09T10:33:29.916Z,1.58
2022-08-09T10:36:05.299Z,1.75
2022-08-09T10:38:55.455Z,2.25
2022-08-09T10:41:25.547Z,2.25
2022-08-09T10:44:01.708Z,1.73
2022-08-09T10:46:57.465Z,1.83
2022-08-09T10:49:50.829Z,2.08
2022-08-09T10:53:15.890Z,2.05
2022-08-09T10:55:55.189Z,2.00
2022-08-09T10:58:34.649Z,1.63
2022-08-09T11:03:06.547Z,1.45
2022-08-09T11:04:19.914Z,1.92
2022-08-09T11:06:59.985Z,2.17
2022-08-09T11:09:47.929Z,2.17
2022-08-09T11:12:17.650Z,1.75
2022-08-09T11:14:48.859Z,1.73
2022-08-09T11:17:15.907Z,1.80
2022-08-09T11:20:12.772Z,1.63
2022-08-09T11:22:41.133Z,1.25
2022-08-09T11:25:15.661Z,1.55
2022-08-09T11:28:04.706Z,1.70
2022-08-09T11:30:38.057Z,1.60
2022-08-09T11:33:29.625Z,1.60
2022-08-09T11:36:01.300Z,1.85
2022-08-09T11:38:33.195Z,2.00
2022-08-09T11:41:03.782Z,1.75
2022-08-09T11:43:32.200Z,1.80
2022-08-09T11:46:02.061Z,1.80
2022-08-09T11:48:31.801Z,1.77
2022-08-09T11:52:48.587Z,1.50
2022-08-09T11:54:33.710Z,2.17
2022-08-09T11:57:47.621Z,1.85
2022-08-09T12:00:28.553Z,1.88
2022-08-09T12:02:58.226Z,1.88
2022-08-09T12:05:42.322Z,2.17
2022-08-09T12:08:21.398Z,1.60
2022-08-09T12:10:53.034Z,1.90
2022-08-09T12:14:08.565Z,2.00
2022-08-09T12:16:38.402Z,1.85
2022-08-09T12:19:10.034Z,1.75
2022-08-09T12:21:48.818Z,1.90
2022-08-09T12:24:24.263Z,1.70
2022-08-09T12:29:09.802Z,1.65
2022-08-09T12:30:00.145Z,1.92
2022-08-09T12:32:43.393Z,2.08
2022-08-09T12:35:13.248Z,2.22
2022-08-09T12:37:51.675Z,1.77
2022-08-09T12:40:23.272Z,1.63
2022-08-09T12:42:52.616Z,1.65
2022-08-09T12:45:34.842Z,1.80
2022-08-09T12:48:20.148Z,1.98
2022-08-09T12:50:57.323Z,1.88
2022-08-09T12:53:35.272Z,1.35
2022-08-09T12:56:44.021Z,1.70
2022-08-09T12:59:23.668Z,1.60
2022-08-09T13:01:59.995Z,1.90
2022-08-09T13:04:36.165Z,1.80
2022-08-09T13:07:19.604Z,1.60
2022-08-09T13:09:55.962Z,1.45
2022-08-09T13:12:29.561Z,1.52
2022-08-09T13:15:07.237Z,1.48
2022-08-09T13:18:03.642Z,1.73
2022-08-09T13:21:04.276Z,1.67
2022-08-09T13:24:07.429Z,1.67
2022-08-09T13:26:36.848Z,1.83
2022-08-09T13:29:09.747Z,2.00
2022-08-09T13:32:20.369Z,2.03
2022-08-09T13:34:46.324Z,1.30
2022-08-09T13:37:15.038Z,1.77
2022-08-09T13:41:52.043Z,1.48
2022-08-09T13:42:51.073Z,1.73
2022-08-09T13:45:19.138Z,1.63
2022-08-09T13:47:49.628Z,1.75
2022-08-09T13:50:30.388Z,1.50
2022-08-09T13:52:58.884Z,1.67
2022-08-09T13:55:28.702Z,1.75
2022-08-09T13:57:59.337Z,1.70
2022-08-09T14:00:28.435Z,1.60
2022-08-09T14:03:03.761Z,1.60
2022-08-09T14:05:59.715Z,1.75
2022-08-09T14:08:31.553Z,1.50
2022-08-09T14:11:00.545Z,2.22
2022-08-09T14:14:23.469Z,1.88
2022-08-09T14:16:19.861Z,1.80
2022-08-09T14:18:55.842Z,1.92
2022-08-09T14:21:25.705Z,2.00
2022-08-09T14:24:01.007Z,1.50
2022-08-09T14:26:33.776Z,1.75
2022-08-09T14:29:07.523Z,1.55
2022-08-09T14:31:51.938Z,2.13
2022-08-09T14:34:27.415Z,1.90
2022-08-09T14:37:06.772Z,2.25
2022-08-09T14:39:47.254Z,2.03
2022-08-09T14:42:31.149Z,1.85
2022-08-09T14:46:51.265Z,1.98
2022-08-09T14:47:57.955Z,1.63
2022-08-09T14:50:30.886Z,2.17
2022-08-09T14:52:59.431Z,2.17
2022-08-09T14:55:29.177Z,2.20
2022-08-09T14:58:05.292Z,1.75
2022-08-09T15:00:34.266Z,1.63
2022-08-09T15:03:06.634Z,1.80
2022-08-09T15:05:38.096Z,2.30
2022-08-09T15:08:05.922Z,2.30
2022-08-09T15:10:40.555Z,2.20
2022-08-09T15:13:15.831Z,2.13
2022-08-09T15:15:43.839Z,2.28
2022-08-09T15:18:14.594Z,2.15
2022-08-09T15:21:58.349Z,2.08
2022-08-09T15:24:02.659Z,2.30
2022-08-09T15:26:31.150Z,2.28
2022-08-09T15:29:04.317Z,1.75
2022-08-09T15:31:41.303Z,2.33
2022-08-09T15:34:32.958Z,2.22
2022-08-09T15:36:58.126Z,2.08
2022-08-09T15:39:43.838Z,2.05
2022-08-09T15:42:14.925Z,2.28
2022-08-09T15:44:42.155Z,2.33
2022-08-09T15:47:14.193Z,1.98
2022-08-09T15:50:00.802Z,2.28
2022-08-09T15:52:36.293Z,2.28
2022-08-09T15:55:09.120Z,2.58
2022-08-09T15:57:51.352Z,3.03
2022-08-09T16:00:25.843Z,2.80
2022-08-09T16:02:59.337Z,3.08
2022-08-09T16:05:47.109Z,2.65
2022-08-09T16:08:30.168Z,2.67
2022-08-09T16:11:02.289Z,3.13
2022-08-09T16:14:04.057Z,2.65
2022-08-09T16:16:19.199Z,2.20
2022-08-09T16:18:48.135Z,2.38
2022-08-09T16:21:17.796Z,2.40
2022-08-09T16:23:55.397Z,2.72
2022-08-09T16:26:35.171Z,2.90
2022-08-09T16:29:12.774Z,2.17
2022-08-09T16:32:20.315Z,2.38
2022-08-09T16:34:55.368Z,2.75
2022-08-09T16:37:18.537Z,2.70
2022-08-09T16:39:54.824Z,2.67
2022-08-09T16:42:32.924Z,2.85
2022-08-09T16:44:59.739Z,2.47
2022-08-09T16:48:40.061Z,2.20
2022-08-09T16:50:29.071Z,2.80
2022-08-09T16:53:02.239Z,2.20
2022-08-09T16:55:44.063Z,2.60
2022-08-09T16:58:18.297Z,3.83
2022-08-09T17:00:46.504Z,2.33
2022-08-09T17:03:21.998Z,2.70
2022-08-09T17:06:07.819Z,2.50
2022-08-09T17:08:58.799Z,2.50
2022-08-09T17:11:32.966Z,2.60
2022-08-09T17:14:25.771Z,2.60
2022-08-09T17:16:59.808Z,3.03
2022-08-09T17:20:04.947Z,2.97
2022-08-09T17:22:24.832Z,3.25
2022-08-09T17:25:09.777Z,2.78
2022-08-09T17:27:40.047Z,2.53
2022-08-09T17:30:17.176Z,3.45
2022-08-09T17:32:47.910Z,2.58
2022-08-09T17:35:15.956Z,3.00
2022-08-09T17:38:13.105Z,2.80
2022-08-09T17:40:34.943Z,2.28
2022-08-09T17:43:32.296Z,2.83
2022-08-09T17:46:05.646Z,3.20
2022-08-09T17:48:40.375Z,2.92
2022-08-09T17:51:18.113Z,3.13
2022-08-09T17:53:55.690Z,2.70
2022-08-09T17:56:27.870Z,3.28
2022-08-09T17:59:01.031Z,3.00
2022-08-09T18:01:40.968Z,3.05
2022-08-09T18:04:19.532Z,2.95
2022-08-09T18:06:54.661Z,3.33
2022-08-09T18:09:40.107Z,3.05
2022-08-09T18:12:17.520Z,2.85
2022-08-09T18:14:54.420Z,3.10
2022-08-09T18:17:27.517Z,3.90
2022-08-09T18:20:55.133Z,3.25
2022-08-09T18:23:05.274Z,3.72
2022-08-09T18:25:52.276Z,3.70
2022-08-09T18:30:42.606Z,3.22
2022-08-09T18:31:13.747Z,3.92
2022-08-09T18:33:40.768Z,4.45
2022-08-09T18:36:25.290Z,3.92
2022-08-09T18:39:02.633Z,3.35
2022-08-09T18:41:35.053Z,3.92
2022-08-09T18:44:03.863Z,3.47
2022-08-09T18:46:50.477Z,3.58
2022-08-09T18:49:26.911Z,3.08
2022-08-09T18:51:54.938Z,3.95
2022-08-09T18:54:28.583Z,3.83
2022-08-09T18:57:06.205Z,3.58
2022-08-09T18:59:51.201Z,3.75
2022-08-09T19:02:30.675Z,4.13
2022-08-09T19:05:03.873Z,3.90
2022-08-09T19:07:59.027Z,4.07
2022-08-09T19:10:29.527Z,3.90
2022-08-09T19:13:23.216Z,4.65
2022-08-09T19:15:56.603Z,4.22
2022-08-09T19:18:33.429Z,4.05
2022-08-09T19:21:09.674Z,4.57
2022-08-09T19:24:35.982Z,4.75
2022-08-09T19:26:31.014Z,4.55
2022-08-09T19:29:03.368Z,3.88
2022-08-09T19:31:45.856Z,4.45
2022-08-09T19:34:21.566Z,4.68
2022-08-09T19:36:52.590Z,5.10
2022-08-09T19:39:42.885Z,5.13
2022-08-09T19:42:09.028Z,4.55
2022-08-09T19:44:41.743Z,4.72
2022-08-09T19:47:08.862Z,5.00
2022-08-09T19:50:10.078Z,5.05
2022-08-09T19:52:28.086Z,4.47
2022-08-09T19:54:55.490Z,5.82
2022-08-09T19:57:25.539Z,5.30
2022-08-09T19:59:59.334Z,4.97
2022-08-09T20:04:11.167Z,4.68
2022-08-09T20:05:23.604Z,5.28
2022-08-09T20:07:59.278Z,4.78
2022-08-09T20:10:34.959Z,5.65
2022-08-09T20:13:06.384Z,5.88
2022-08-09T20:16:33.356Z,5.28
2022-08-09T20:18:28.075Z,5.28
2022-08-09T20:20:55.791Z,5.85
2022-08-09T20:23:24.303Z,5.53
2022-08-09T20:26:07.233Z,5.25
2022-08-09T20:28:38.819Z,5.57
2022-08-09T20:31:16.372Z,5.32
2022-08-09T20:33:44.711Z,5.35
2022-08-09T20:36:13.409Z,5.65
2022-08-09T20:41:34.868Z,5.60
2022-08-09T20:44:09.878Z,6.47
2022-08-09T20:46:44.205Z,6.38
2022-08-09T20:49:15.816Z,5.90
2022-08-09T20:51:44.049Z,5.93
2022-08-09T20:54:16.566Z,6.38
2022-08-09T20:56:49.706Z,6.43
2022-08-09T20:59:49.966Z,6.25
2022-08-09T21:02:11.265Z,7.07
2022-08-09T21:05:54.620Z,6.15
2022-08-09T21:07:40.136Z,6.60
2022-08-09T21:10:11.929Z,6.18
2022-08-09T21:12:39.074Z,6.35
2022-08-09T21:15:12.547Z,6.50
2022-08-09T21:18:25.554Z,5.45
2022-08-09T21:20:30.274Z,6.88
2022-08-09T21:22:58.507Z,6.82
2022-08-09T21:25:55.997Z,6.18
2022-08-09T21:28:35.115Z,6.15
2022-08-09T21:31:17.637Z,5.55
2022-08-09T21:33:50.801Z,5.30
2022-08-09T21:36:25.752Z,5.82
2022-08-09T21:38:57.324Z,5.68
2022-08-09T21:42:04.302Z,5.63
2022-08-09T21:44:15.247Z,6.82
2022-08-09T21:47:01.723Z,5.65
2022-08-09T21:49:28.790Z,6.20
2022-08-09T21:52:14.420Z,6.57
2022-08-09T21:55:03.013Z,6.35
2022-08-09T21:57:39.120Z,6.67
2022-08-09T22:00:25.726Z,6.95
2022-08-09T22:02:54.403Z,5.70
2022-08-09T22:05:36.718Z,6.30
2022-08-09T22:08:13.133Z,6.83
2022-08-09T22:11:00.365Z,6.00
2022-08-09T22:13:37.337Z,6.35
2022-08-09T22:16:08.849Z,5.68
2022-08-09T22:18:52.965Z,5.43
2022-08-09T22:21:45.380Z,6.80
2022-08-09T22:24:16.877Z,6.72
2022-08-09T22:26:51.274Z,6.07
2022-08-09T22:29:19.080Z,6.10
2022-08-09T22:31:56.220Z,6.60
2022-08-09T22:34:26.224Z,7.10
2022-08-09T22:36:55.370Z,6.50
2022-08-09T22:39:55.481Z,6.23
2022-08-09T22:42:21.402Z,6.80
2022-08-09T22:45:02.209Z,7.00
2022-08-09T22:48:14.553Z,6.27
2022-08-09T22:50:29.938Z,6.82
2022-08-09T22:52:58.626Z,8.17
2022-08-09T22:55:39.624Z,7.90
2022-08-09T22:58:30.726Z,7.70
2022-08-09T23:00:59.955Z,7.90
2022-08-09T23:04:04.645Z,8.33
2022-08-09T23:06:15.696Z,7.93
2022-08-09T23:09:11.387Z,9.20
2022-08-09T23:11:40.222Z,7.50
2022-08-09T23:14:17.019Z,7.23
2022-08-09T23:16:44.954Z,7.30
2022-08-09T23:19:11.844Z,7.43
2022-08-09T23:21:39.614Z,7.63
2022-08-09T23:24:07.997Z,6.70
2022-08-09T23:26:36.277Z,6.50
2022-08-09T23:29:07.734Z,7.53
2022-08-09T23:31:36.039Z,6.77
2022-08-09T23:34:04.343Z,7.47
2022-08-09T23:36:33.905Z,7.20
2022-08-09T23:39:01.495Z,7.93
2022-08-09T23:41:29.990Z,8.15
2022-08-09T23:43:58.421Z,9.40
2022-08-09T23:46:25.464Z,7.40
2022-08-09T23:48:52.541Z,9.33
2022-08-09T23:51:19.605Z,8.93
2022-08-09T23:53:49.553Z,8.10
2022-08-09T23:56:17.616Z,8.03
2022-08-09T23:59:04.503Z,7.80
